createdAt,value
2022-11-15T00:00:57.187Z,5.32
2022-11-15T00:03:28.951Z,5.36
2022-11-15T00:05:56.010Z,5.36
2022-11-15T00:08:22.658Z,5.40
2022-11-15T00:10:57.345Z,5.22
2022-11-15T00:13:24.109Z,5.18
2022-11-15T00:15:50.845Z,5.16
2022-11-15T00:18:18.185Z,5.18
2022-11-15T00:20:45.322Z,5.19
2022-11-15T00:23:12.068Z,5.20
2022-11-15T00:25:38.740Z,5.25
2022-11-15T00:28:05.683Z,5.26
2022-11-15T00:30:32.355Z,5.26
2022-11-15T00:33:05.696Z,5.24
2022-11-15T00:35:34.565Z,5.29
2022-11-15T00:38:02.023Z,5.32
2022-11-15T00:40:29.302Z,5.36
2022-11-15T00:42:56.301Z,5.40
2022-11-15T00:45:23.228Z,5.43
2022-11-15T00:47:49.863Z,5.45
2022-11-15T00:50:16.829Z,5.48
2022-11-15T00:52:44.044Z,5.53
2022-11-15T00:55:18.171Z,5.52
2022-11-15T00:57:45.470Z,5.51
2022-11-15T01:00:13.239Z,5.50
2022-11-15T01:02:39.879Z,5.54
2022-11-15T01:05:07.293Z,5.57
2022-11-15T01:07:34.140Z,5.60
2022-11-15T01:10:00.890Z,5.60
2022-11-15T01:12:28.027Z,5.63
2022-11-15T01:14:55.374Z,5.67
2022-11-15T01:17:22.108Z,5.67
2022-11-15T01:19:48.724Z,5.67
2022-11-15T01:22:15.441Z,5.74
2022-11-15T01:24:42.134Z,5.66
2022-11-15T01:27:09.259Z,5.64
2022-11-15T01:29:35.961Z,5.61
2022-11-15T01:32:02.642Z,5.61
2022-11-15T01:34:29.294Z,5.57
2022-11-15T01:36:56.047Z,5.45
2022-11-15T01:39:22.695Z,5.43
2022-11-15T01:41:49.335Z,5.37
2022-11-15T01:44:34.544Z,5.37
2022-11-15T01:47:03.276Z,5.33
2022-11-15T01:49:34.339Z,5.30
2022-11-15T01:52:04.382Z,5.28
2022-11-15T01:54:31.977Z,5.30
2022-11-15T01:57:09.681Z,5.27
2022-11-15T01:59:43.492Z,5.14
2022-11-15T02:02:10.220Z,5.09
2022-11-15T02:04:42.073Z,5.06
2022-11-15T02:07:11.795Z,5.08
2022-11-15T02:09:39.373Z,5.13
2022-11-15T02:12:08.303Z,5.20
2022-11-15T02:14:36.961Z,5.23
2022-11-15T02:17:12.126Z,5.24
2022-11-15T02:20:29.339Z,5.26
2022-11-15T02:23:23.862Z,5.22
2022-11-15T02:26:02.468Z,5.13
2022-11-15T02:29:09.853Z,5.09
2022-11-15T02:31:48.684Z,5.07
2022-11-15T02:34:23.621Z,5.08
2022-11-15T02:37:05.305Z,5.05
2022-11-15T02:39:53.050Z,4.94
2022-11-15T02:42:44.336Z,4.89
2022-11-15T02:45:18.827Z,4.92
2022-11-15T02:47:49.007Z,4.92
2022-11-15T02:50:19.738Z,4.94
2022-11-15T02:52:47.885Z,4.94
2022-11-15T02:55:34.649Z,4.86
2022-11-15T02:58:18.913Z,4.85
2022-11-15T03:01:08.312Z,4.86
2022-11-15T03:03:49.857Z,4.86
2022-11-15T03:06:30.186Z,4.75
2022-11-15T03:09:26.434Z,4.71
2022-11-15T03:12:08.115Z,4.75
2022-11-15T03:14:40.819Z,4.78
2022-11-15T03:17:30.723Z,4.76
2022-11-15T03:20:01.083Z,4.70
2022-11-15T03:22:31.680Z,4.52
2022-11-15T03:25:03.035Z,4.51
2022-11-15T03:27:36.798Z,4.52
2022-11-15T03:30:07.422Z,4.56
2022-11-15T03:32:56.155Z,4.54
2022-11-15T03:35:28.375Z,4.48
2022-11-15T03:38:18.070Z,4.20
2022-11-15T03:40:52.263Z,4.15
2022-11-15T03:43:41.862Z,4.19
2022-11-15T03:46:25.547Z,4.24
2022-11-15T03:48:58.690Z,4.22
2022-11-15T03:51:25.368Z,4.22
2022-11-15T03:53:52.647Z,4.23
2022-11-15T03:56:19.318Z,4.21
2022-11-15T03:58:45.910Z,4.15
2022-11-15T04:01:12.598Z,4.02
2022-11-15T04:03:39.254Z,3.99
2022-11-15T04:06:06.196Z,4.04
2022-11-15T04:08:32.797Z,4.08
2022-11-15T04:11:01.181Z,4.07
2022-11-15T04:13:29.073Z,4.04
2022-11-15T04:15:55.886Z,4.04
2022-11-15T04:18:22.991Z,3.89
2022-11-15T04:21:08.015Z,3.88
2022-11-15T04:24:06.789Z,3.87
2022-11-15T04:26:33.762Z,3.92
2022-11-15T04:29:38.726Z,3.93
2022-11-15T04:32:07.501Z,3.84
2022-11-15T04:34:34.238Z,3.75
2022-11-15T04:37:13.156Z,3.59
2022-11-15T04:39:44.153Z,3.57
2022-11-15T04:42:11.273Z,3.59
2022-11-15T04:44:38.297Z,3.63
2022-11-15T04:47:05.491Z,3.54
2022-11-15T04:49:32.182Z,3.50
2022-11-15T04:51:58.870Z,3.50
2022-11-15T04:54:25.532Z,3.51
2022-11-15T04:56:52.226Z,3.44
2022-11-15T04:59:18.866Z,3.40
2022-11-15T05:01:45.585Z,3.40
2022-11-15T05:04:21.106Z,3.39
2022-11-15T05:06:50.155Z,3.38
2022-11-15T05:09:18.189Z,3.25
2022-11-15T05:11:45.055Z,3.10
2022-11-15T05:14:11.785Z,3.14
2022-11-15T05:16:38.733Z,3.23
2022-11-15T05:19:06.000Z,3.25
2022-11-15T05:21:33.590Z,3.24
2022-11-15T05:24:00.769Z,3.26
2022-11-15T05:26:27.844Z,3.29
2022-11-15T05:28:56.473Z,3.32
2022-11-15T05:31:23.847Z,3.38
2022-11-15T05:33:52.740Z,3.40
2022-11-15T05:36:37.150Z,3.39
2022-11-15T05:39:05.956Z,3.41
2022-11-15T05:41:40.438Z,3.37
2022-11-15T05:44:10.191Z,3.27
2022-11-15T05:46:40.632Z,3.10
2022-11-15T05:49:10.728Z,3.12
2022-11-15T05:51:37.477Z,3.14
2022-11-15T05:54:04.421Z,3.15
2022-11-15T05:56:31.300Z,3.13
2022-11-15T05:58:59.940Z,3.07
2022-11-15T06:01:28.081Z,3.11
2022-11-15T06:03:54.802Z,3.15
2022-11-15T06:06:21.548Z,3.15
2022-11-15T06:08:48.956Z,3.16
2022-11-15T06:11:15.879Z,3.10
2022-11-15T06:13:42.645Z,3.05
2022-11-15T06:16:09.236Z,3.02
2022-11-15T06:18:36.407Z,2.99
2022-11-15T06:21:03.308Z,3.01
2022-11-15T06:23:34.200Z,2.95
2022-11-15T06:26:02.374Z,2.98
2022-11-15T06:28:30.750Z,2.91
2022-11-15T06:30:58.083Z,2.97
2022-11-15T06:33:24.745Z,2.97
2022-11-15T06:35:51.408Z,3.04
2022-11-15T06:38:18.062Z,3.14
2022-11-15T06:40:44.772Z,3.18
2022-11-15T06:43:11.459Z,3.21
2022-11-15T06:45:38.112Z,3.23
2022-11-15T06:48:05.107Z,3.17
2022-11-15T06:50:31.738Z,3.15
2022-11-15T06:53:02.930Z,3.14
2022-11-15T06:55:29.531Z,3.22
2022-11-15T06:57:56.174Z,3.34
2022-11-15T07:00:23.614Z,3.45
2022-11-15T07:02:50.485Z,3.53
2022-11-15T07:05:17.312Z,3.58
2022-11-15T07:07:44.211Z,3.60
2022-11-15T07:10:11.140Z,3.64
2022-11-15T07:12:37.791Z,3.70
2022-11-15T07:15:04.799Z,3.78
2022-11-15T07:17:31.442Z,3.85
2022-11-15T07:19:58.190Z,3.94
2022-11-15T07:22:24.820Z,4.03
2022-11-15T07:24:51.424Z,4.08
2022-11-15T07:27:18.401Z,4.15
2022-11-15T07:29:45.255Z,4.21
2022-11-15T07:32:11.910Z,4.32
2022-11-15T07:34:38.864Z,4.39
2022-11-15T07:37:05.466Z,4.42
2022-11-15T07:39:32.088Z,4.42
2022-11-15T07:42:17.504Z,4.47
2022-11-15T07:44:44.134Z,4.54
2022-11-15T07:47:10.760Z,4.63
2022-11-15T07:49:37.409Z,4.69
2022-11-15T07:52:04.103Z,4.76
2022-11-15T07:54:30.693Z,4.81
2022-11-15T07:56:59.207Z,4.88
2022-11-15T07:59:27.793Z,4.94
2022-11-15T08:01:54.498Z,5.02
2022-11-15T08:04:21.232Z,5.12
2022-11-15T08:06:47.885Z,5.22
2022-11-15T08:09:14.531Z,5.29
2022-11-15T08:11:41.155Z,5.36
2022-11-15T08:14:07.823Z,5.46
2022-11-15T08:16:34.453Z,5.52
2022-11-15T08:19:01.259Z,5.57
2022-11-15T08:21:27.952Z,5.70
2022-11-15T08:23:54.703Z,5.80
2022-11-15T08:26:21.415Z,5.87
2022-11-15T08:28:48.142Z,6.00
2022-11-15T08:31:17.826Z,6.10
2022-11-15T08:33:45.475Z,6.12
2022-11-15T08:36:17.181Z,6.14
2022-11-15T08:38:44.263Z,6.20
2022-11-15T08:41:17.121Z,6.35
2022-11-15T08:43:43.762Z,6.34
2022-11-15T08:46:14.230Z,6.37
2022-11-15T08:48:40.835Z,6.42
2022-11-15T08:51:07.780Z,6.34
2022-11-15T08:53:35.339Z,6.37
2022-11-15T08:56:02.749Z,6.45
2022-11-15T08:58:29.916Z,6.44
2022-11-15T09:00:56.896Z,6.68
2022-11-15T09:03:23.666Z,6.74
2022-11-15T09:05:54.802Z,6.62
2022-11-15T09:08:49.118Z,6.65
2022-11-15T09:11:09.705Z,6.61
2022-11-15T09:13:38.092Z,6.60
2022-11-15T09:16:05.572Z,6.60
2022-11-15T09:18:33.231Z,6.60
2022-11-15T09:21:01.331Z,6.57
2022-11-15T09:23:28.005Z,6.63
2022-11-15T09:26:03.979Z,6.68
2022-11-15T09:28:31.538Z,6.77
2022-11-15T09:31:03.307Z,6.87
2022-11-15T09:33:30.563Z,6.93
2022-11-15T09:36:09.207Z,7.07
2022-11-15T09:38:36.756Z,7.23
2022-11-15T09:41:15.245Z,7.18
2022-11-15T09:44:07.674Z,7.36
2022-11-15T09:46:56.343Z,7.54
2022-11-15T09:49:23.834Z,7.51
2022-11-15T09:51:54.105Z,7.49
2022-11-15T09:54:55.754Z,7.49
2022-11-15T09:57:31.531Z,7.39
2022-11-15T10:00:30.755Z,7.67
2022-11-15T10:03:10.763Z,7.74
2022-11-15T10:05:46.547Z,7.67
2022-11-15T10:08:31.900Z,7.69
2022-11-15T10:11:35.641Z,7.83
2022-11-15T10:13:51.283Z,8.00
2022-11-15T10:16:51.072Z,8.14
2022-11-15T10:19:25.205Z,8.22
2022-11-15T10:22:07.074Z,8.29
2022-11-15T10:24:39.530Z,8.38
2022-11-15T10:27:13.130Z,8.45
2022-11-15T10:29:45.505Z,8.45
2022-11-15T10:32:14.131Z,8.45
2022-11-15T10:34:40.811Z,8.53
2022-11-15T10:37:07.536Z,8.58
2022-11-15T10:39:34.853Z,8.57
2022-11-15T10:42:28.642Z,8.59
2022-11-15T10:44:55.977Z,8.63
2022-11-15T10:47:37.642Z,8.57
2022-11-15T10:50:26.954Z,8.70
2022-11-15T10:52:54.227Z,8.88
2022-11-15T10:55:27.816Z,9.13
2022-11-15T10:58:03.021Z,9.37
2022-11-15T11:00:42.795Z,9.64
2022-11-15T11:03:30.287Z,9.85
2022-11-15T11:06:15.578Z,10.04
2022-11-15T11:08:58.791Z,10.17
2022-11-15T11:11:26.580Z,10.22
2022-11-15T11:13:53.821Z,10.26
2022-11-15T11:16:23.485Z,10.30
2022-11-15T11:19:17.815Z,10.45
2022-11-15T11:22:11.481Z,10.48
2022-11-15T11:24:48.795Z,10.47
2022-11-15T11:27:38.703Z,10.42
2022-11-15T11:30:09.670Z,10.40
2022-11-15T11:32:45.285Z,10.46
2022-11-15T11:35:23.921Z,10.39
2022-11-15T11:38:02.107Z,10.29
2022-11-15T11:41:00.126Z,10.27
2022-11-15T11:43:38.048Z,10.21
2022-11-15T11:46:18.664Z,10.16
2022-11-15T11:48:50.007Z,10.02
2022-11-15T11:51:22.679Z,9.88
2022-11-15T11:53:56.442Z,9.82
2022-11-15T11:56:32.759Z,9.82
2022-11-15T11:59:08.678Z,9.85
2022-11-15T12:01:42.264Z,9.78
2022-11-15T12:04:35.674Z,9.69
2022-11-15T12:07:10.230Z,9.63
2022-11-15T12:09:42.941Z,9.61
2022-11-15T12:12:51.558Z,9.53
2022-11-15T12:15:23.452Z,9.63
2022-11-15T12:17:50.827Z,9.63
2022-11-15T12:20:23.711Z,9.70
2022-11-15T12:23:26.426Z,9.53
2022-11-15T12:26:08.778Z,9.40
2022-11-15T12:29:06.884Z,9.31
2022-11-15T12:31:44.856Z,9.29
2022-11-15T12:34:23.691Z,9.24
2022-11-15T12:36:52.246Z,9.29
2022-11-15T12:39:19.736Z,9.24
2022-11-15T12:42:06.298Z,9.24
2022-11-15T12:44:32.892Z,9.10
2022-11-15T12:46:59.487Z,9.20
2022-11-15T12:49:29.141Z,9.17
2022-11-15T12:51:58.725Z,9.12
2022-11-15T12:54:25.396Z,9.15
2022-11-15T12:57:04.386Z,9.06
2022-11-15T13:00:05.336Z,8.92
2022-11-15T13:02:44.673Z,8.80
2022-11-15T13:05:17.360Z,8.87
2022-11-15T13:07:43.944Z,8.81
2022-11-15T13:10:13.457Z,8.75
2022-11-15T13:12:46.198Z,8.72
2022-11-15T13:15:12.800Z,8.59
2022-11-15T13:17:49.543Z,8.51
2022-11-15T13:20:16.191Z,8.50
2022-11-15T13:23:03.100Z,8.50
2022-11-15T13:25:38.500Z,8.47
2022-11-15T13:28:10.997Z,8.45
2022-11-15T13:30:38.732Z,8.48
2022-11-15T13:33:20.846Z,8.56
2022-11-15T13:35:50.332Z,8.46
2022-11-15T13:38:29.448Z,8.42
2022-11-15T13:40:57.753Z,8.23
2022-11-15T13:43:25.102Z,8.19
2022-11-15T13:46:19.576Z,8.18
2022-11-15T13:48:48.148Z,8.11
2022-11-15T13:51:23.820Z,8.06
2022-11-15T13:53:56.354Z,8.04
2022-11-15T13:56:23.695Z,7.94
2022-11-15T13:58:50.608Z,7.88
2022-11-15T14:01:21.745Z,7.92
2022-11-15T14:03:58.723Z,7.93
2022-11-15T14:06:28.388Z,7.93
2022-11-15T14:09:05.206Z,7.77
2022-11-15T14:11:31.999Z,7.80
2022-11-15T14:14:12.877Z,7.71
2022-11-15T14:16:48.621Z,7.63
2022-11-15T14:19:21.183Z,7.62
2022-11-15T14:22:12.716Z,7.61
2022-11-15T14:24:40.119Z,7.64
2022-11-15T14:27:22.207Z,7.50
2022-11-15T14:29:49.403Z,7.56
2022-11-15T14:32:25.183Z,7.64
2022-11-15T14:34:58.083Z,7.58
2022-11-15T14:37:34.046Z,7.60
2022-11-15T14:40:00.870Z,7.58
2022-11-15T14:42:27.534Z,7.57
2022-11-15T14:44:54.314Z,7.56
2022-11-15T14:47:21.122Z,7.50
2022-11-15T14:49:48.134Z,7.49
2022-11-15T14:52:31.612Z,7.51
2022-11-15T14:55:00.839Z,7.47
2022-11-15T14:57:27.500Z,7.48
2022-11-15T14:59:54.439Z,7.54
2022-11-15T15:02:27.856Z,7.48
2022-11-15T15:04:54.732Z,7.43
2022-11-15T15:07:21.906Z,7.44
2022-11-15T15:09:48.750Z,7.45
2022-11-15T15:12:23.614Z,7.42
2022-11-15T15:14:51.095Z,7.40
2022-11-15T15:17:18.608Z,7.37
2022-11-15T15:19:45.289Z,7.31
2022-11-15T15:22:20.783Z,7.38
2022-11-15T15:24:47.434Z,7.43
2022-11-15T15:27:14.850Z,7.29
2022-11-15T15:33:32.324Z,7.28
2022-11-15T15:35:58.977Z,7.28
2022-11-15T15:38:26.046Z,7.30
2022-11-15T15:40:52.704Z,7.28
2022-11-15T15:43:19.385Z,7.24
2022-11-15T15:45:46.073Z,7.29
2022-11-15T15:48:15.328Z,7.29
2022-11-15T15:50:44.026Z,7.28
2022-11-15T15:53:12.114Z,7.25
2022-11-15T15:55:39.375Z,7.29
2022-11-15T15:58:06.123Z,7.34
2022-11-15T16:00:35.583Z,7.25
2022-11-15T16:03:02.526Z,7.23
2022-11-15T16:05:29.207Z,7.22
2022-11-15T16:07:55.894Z,7.22
2022-11-15T16:10:30.863Z,7.23
2022-11-15T16:12:58.972Z,7.15
2022-11-15T16:15:27.983Z,7.13
2022-11-15T16:17:57.097Z,7.11
2022-11-15T16:20:27.680Z,7.11
2022-11-15T16:22:54.315Z,7.13
2022-11-15T16:25:20.998Z,7.14
2022-11-15T16:27:47.780Z,7.12
2022-11-15T16:30:19.827Z,7.14
2022-11-15T16:32:47.076Z,7.15
2022-11-15T16:35:15.846Z,7.15
2022-11-15T16:37:44.975Z,7.14
2022-11-15T16:40:33.329Z,7.12
2022-11-15T16:43:02.434Z,7.15
2022-11-15T16:45:29.590Z,7.15
2022-11-15T16:47:56.958Z,7.13
2022-11-15T16:50:29.416Z,7.14
2022-11-15T16:52:58.114Z,7.13
2022-11-15T16:55:28.071Z,7.01
2022-11-15T16:57:55.812Z,7.02
2022-11-15T17:00:22.416Z,7.04
2022-11-15T17:02:50.571Z,7.06
2022-11-15T17:05:20.366Z,7.10
2022-11-15T17:07:50.552Z,7.10
2022-11-15T17:10:17.297Z,7.10
2022-11-15T17:12:44.235Z,7.07
2022-11-15T17:15:13.187Z,7.11
2022-11-15T17:17:40.873Z,7.12
2022-11-15T17:20:15.425Z,7.14
2022-11-15T17:22:42.424Z,7.13
2022-11-15T17:25:09.577Z,7.12
2022-11-15T17:27:36.438Z,7.12
2022-11-15T17:30:03.568Z,7.08
2022-11-15T17:32:30.168Z,7.09
2022-11-15T17:34:56.809Z,7.08
2022-11-15T17:37:23.447Z,7.11
2022-11-15T17:39:50.142Z,7.10
2022-11-15T17:42:16.785Z,7.11
2022-11-15T17:44:43.439Z,7.12
2022-11-15T17:47:10.057Z,7.16
2022-11-15T17:49:39.509Z,7.13
2022-11-15T17:52:06.862Z,7.13
2022-11-15T17:54:33.924Z,7.14
2022-11-15T17:57:00.650Z,7.16
2022-11-15T17:59:27.277Z,7.14
2022-11-15T18:01:56.811Z,7.14
2022-11-15T18:04:28.300Z,7.14
2022-11-15T18:06:56.581Z,7.11
2022-11-15T18:09:23.380Z,7.11
2022-11-15T18:11:51.748Z,7.09
2022-11-15T18:14:19.382Z,7.10
2022-11-15T18:16:46.315Z,7.09
2022-11-15T18:19:13.848Z,7.10
2022-11-15T18:21:56.452Z,7.08
2022-11-15T18:24:29.296Z,7.07
2022-11-15T18:26:56.793Z,7.06
2022-11-15T18:29:24.760Z,7.07
2022-11-15T18:31:55.543Z,7.09
2022-11-15T18:34:24.233Z,7.09
2022-11-15T18:36:52.904Z,7.08
2022-11-15T18:39:20.156Z,7.08
2022-11-15T18:41:47.777Z,7.05
2022-11-15T18:44:15.068Z,7.08
2022-11-15T18:46:42.134Z,7.09
2022-11-15T18:49:10.114Z,7.07
2022-11-15T18:51:43.391Z,7.08
2022-11-15T18:54:12.090Z,7.06
2022-11-15T18:56:39.491Z,7.08
2022-11-15T18:59:06.843Z,7.12
2022-11-15T19:01:35.657Z,7.13
2022-11-15T19:04:07.992Z,7.10
2022-11-15T19:06:39.022Z,7.07
2022-11-15T19:09:06.364Z,7.03
2022-11-15T19:11:35.951Z,7.04
2022-11-15T19:14:05.777Z,7.05
2022-11-15T19:16:36.515Z,7.03
2022-11-15T19:19:06.436Z,7.03
2022-11-15T19:21:33.670Z,7.04
2022-11-15T19:24:01.490Z,7.04
2022-11-15T19:26:29.368Z,7.05
2022-11-15T19:28:58.277Z,7.07
2022-11-15T19:31:26.514Z,7.09
2022-11-15T19:33:53.950Z,7.10
2022-11-15T19:36:23.826Z,7.06
2022-11-15T19:38:50.663Z,7.02
2022-11-15T19:41:19.569Z,7.05
2022-11-15T19:43:50.974Z,7.09
2022-11-15T19:46:20.618Z,7.09
2022-11-15T19:48:47.983Z,7.08
2022-11-15T19:51:19.388Z,7.04
2022-11-15T19:53:45.990Z,7.03
2022-11-15T19:56:17.769Z,6.99
2022-11-15T19:58:45.200Z,6.99
2022-11-15T20:01:22.119Z,7.00
2022-11-15T20:03:50.888Z,7.00
2022-11-15T20:06:19.792Z,6.98
2022-11-15T20:08:47.137Z,6.96
2022-11-15T20:11:15.497Z,6.96
2022-11-15T20:13:43.040Z,6.99
2022-11-15T20:16:14.974Z,6.97
2022-11-15T20:18:41.761Z,6.97
2022-11-15T20:21:09.175Z,7.02
2022-11-15T20:23:35.816Z,7.03
2022-11-15T20:26:02.452Z,7.04
2022-11-15T20:28:29.509Z,7.01
2022-11-15T20:31:00.909Z,7.00
2022-11-15T20:33:28.249Z,6.94
2022-11-15T20:35:54.909Z,6.94
2022-11-15T20:38:21.938Z,6.98
2022-11-15T20:40:50.090Z,6.96
2022-11-15T20:43:19.218Z,6.94
2022-11-15T20:45:47.725Z,6.90
2022-11-15T20:48:15.064Z,6.89
2022-11-15T20:50:43.908Z,6.88
2022-11-15T20:53:13.002Z,6.86
2022-11-15T20:55:41.470Z,6.89
2022-11-15T20:58:09.515Z,6.94
2022-11-15T21:00:37.050Z,7.00
2022-11-15T21:03:06.953Z,6.98
2022-11-15T21:05:41.761Z,6.95
2022-11-15T21:08:09.610Z,6.90
2022-11-15T21:10:54.432Z,6.90
2022-11-15T21:13:21.762Z,6.88
2022-11-15T21:15:48.656Z,6.87
2022-11-15T21:18:15.747Z,6.81
2022-11-15T21:20:42.572Z,6.80
2022-11-15T21:23:09.623Z,6.81
2022-11-15T21:25:36.287Z,6.84
2022-11-15T21:28:03.216Z,6.87
2022-11-15T21:30:30.552Z,6.93
2022-11-15T21:32:57.210Z,6.90
2022-11-15T21:35:24.291Z,6.90
2022-11-15T21:37:56.538Z,6.88
2022-11-15T21:40:24.584Z,6.89
2022-11-15T21:42:51.227Z,6.89
2022-11-15T21:45:17.846Z,6.86
2022-11-15T21:47:46.388Z,6.83
2022-11-15T21:50:13.948Z,6.82
2022-11-15T21:52:41.072Z,6.81
2022-11-15T21:55:08.527Z,6.82
2022-11-15T21:57:35.181Z,6.81
2022-11-15T22:00:20.467Z,6.75
2022-11-15T22:02:47.077Z,6.73
2022-11-15T22:05:13.739Z,6.76
2022-11-15T22:07:40.650Z,6.77
2022-11-15T22:10:07.599Z,6.80
2022-11-15T22:12:34.209Z,6.79
2022-11-15T22:15:00.851Z,6.79
2022-11-15T22:17:47.501Z,6.77
2022-11-15T22:20:43.989Z,6.79
2022-11-15T22:23:02.286Z,6.79
2022-11-15T22:25:30.123Z,6.76
2022-11-15T22:27:56.809Z,6.77
2022-11-15T22:30:24.281Z,6.78
2022-11-15T22:32:51.000Z,6.81
2022-11-15T22:35:17.865Z,6.79
2022-11-15T22:37:44.552Z,6.77
2022-11-15T22:40:11.517Z,6.77
2022-11-15T22:42:38.198Z,6.80
2022-11-15T22:45:05.257Z,6.78
2022-11-15T22:47:31.959Z,6.79
2022-11-15T22:49:58.623Z,6.79
2022-11-15T22:52:25.374Z,6.78
2022-11-15T22:54:52.112Z,6.79
2022-11-15T22:57:18.813Z,6.78
2022-11-15T22:59:45.973Z,6.79
2022-11-15T23:02:12.646Z,6.77
2022-11-15T23:04:39.432Z,6.76
2022-11-15T23:07:06.175Z,6.76
2022-11-15T23:09:32.968Z,6.75
2022-11-15T23:12:18.235Z,6.75
2022-11-15T23:14:44.809Z,6.74
2022-11-15T23:17:11.474Z,6.68
2022-11-15T23:19:38.234Z,6.65
2022-11-15T23:22:23.634Z,6.60
2022-11-15T23:24:51.838Z,6.63
2022-11-15T23:27:20.083Z,6.64
2022-11-15T23:30:06.307Z,6.64
2022-11-15T23:32:51.752Z,6.66
2022-11-15T23:35:18.434Z,6.62
2022-11-15T23:37:45.421Z,6.61
2022-11-15T23:40:12.904Z,6.56
2022-11-15T23:42:39.688Z,6.57
2022-11-15T23:45:07.081Z,6.55
2022-11-15T23:47:33.909Z,6.55
2022-11-15T23:50:00.609Z,6.52
2022-11-15T23:52:27.291Z,6.51
2022-11-15T23:54:54.004Z,6.50
2022-11-15T23:57:20.751Z,6.47
2022-11-15T23:59:47.779Z,6.44
